Litchfield, Michigan
Current Conditions -  °F | °C
As of 1:15 PM on Monday 26 Jan 2015 (Local Time) from KJYM Reporting Station
Clear Clear  
Wind Chill: 21°   Ceiling: Unl
Heat Index: 21°   Visibility: 10mi
Dew Point:   Wind: 0mph
Humidity: 55%   Direction: NA
Pressure: 29.87"   Gusts: NA
Location:  42.04°N, 84.76°W
Report Text: KJYM 261815Z AUTO 00000KT 10SM CLR M06/M14 A2987 RMK AO2 T10591136
Loading
Personal Weather Stations






























Interactive Weather Map New forecast layout! Learn more

10-Day Weather Forecast

Advertisements
Track Severe Weather on mobile